sensor_id;sensor_type;location;lat;lon;timestamp;P1;durP1;ratioP1;P2;durP2;ratioP2
22223;SDS011;11281;52.194;21.006;2023-07-13T00:03:51;15.82;;;10.70;;
22223;SDS011;11281;52.194;21.006;2023-07-13T00:07:53;15.07;;;10.40;;
22223;SDS011;11281;52.194;21.006;2023-07-13T00:11:55;14.48;;;9.93;;
22223;SDS011;11281;52.194;21.006;2023-07-13T00:15:58;17.05;;;10.38;;
22223;SDS011;11281;52.194;21.006;2023-07-13T00:20:02;15.70;;;10.55;;
22223;SDS011;11281;52.194;21.006;2023-07-13T00:24:05;18.70;;;10.80;;
22223;SDS011;11281;52.194;21.006;2023-07-13T00:28:08;18.23;;;11.18;;
22223;SDS011;11281;52.194;21.006;2023-07-13T00:32:10;18.08;;;11.57;;
22223;SDS011;11281;52.194;21.006;2023-07-13T00:36:12;19.90;;;12.93;;
22223;SDS011;11281;52.194;21.006;2023-07-13T00:40:14;16.63;;;10.75;;
22223;SDS011;11281;52.194;21.006;2023-07-13T00:44:17;16.63;;;10.60;;
22223;SDS011;11281;52.194;21.006;2023-07-13T00:48:21;15.05;;;9.93;;
22223;SDS011;11281;52.194;21.006;2023-07-13T00:52:30;15.38;;;10.60;;
22223;SDS011;11281;52.194;21.006;2023-07-13T00:56:32;14.77;;;10.40;;
22223;SDS011;11281;52.194;21.006;2023-07-13T01:00:35;15.10;;;10.68;;
22223;SDS011;11281;52.194;21.006;2023-07-13T01:04:39;18.23;;;11.05;;
22223;SDS011;11281;52.194;21.006;2023-07-13T01:08:41;17.05;;;10.13;;
22223;SDS011;11281;52.194;21.006;2023-07-13T01:12:43;14.93;;;9.80;;
22223;SDS011;11281;52.194;21.006;2023-07-13T01:16:45;19.23;;;10.70;;
22223;SDS011;11281;52.194;21.006;2023-07-13T01:24:57;15.07;;;10.75;;
22223;SDS011;11281;52.194;21.006;2023-07-13T01:28:59;14.43;;;10.48;;
22223;SDS011;11281;52.194;21.006;2023-07-13T01:33:01;17.35;;;11.40;;
22223;SDS011;11281;52.194;21.006;2023-07-13T01:37:04;16.77;;;10.82;;
22223;SDS011;11281;52.194;21.006;2023-07-13T01:41:06;15.68;;;11.48;;
22223;SDS011;11281;52.194;21.006;2023-07-13T01:45:08;18.20;;;10.57;;
22223;SDS011;11281;52.194;21.006;2023-07-13T01:49:09;15.85;;;11.38;;
22223;SDS011;11281;52.194;21.006;2023-07-13T01:53:11;17.27;;;12.48;;
22223;SDS011;11281;52.194;21.006;2023-07-13T01:57:13;17.35;;;11.63;;
22223;SDS011;11281;52.194;21.006;2023-07-13T02:01:14;17.55;;;11.55;;
22223;SDS011;11281;52.194;21.006;2023-07-13T02:05:16;17.92;;;13.05;;
22223;SDS011;11281;52.194;21.006;2023-07-13T02:09:18;20.23;;;12.70;;
22223;SDS011;11281;52.194;21.006;2023-07-13T02:13:20;22.33;;;13.63;;
22223;SDS011;11281;52.194;21.006;2023-07-13T02:17:22;24.55;;;14.52;;
22223;SDS011;11281;52.194;21.006;2023-07-13T02:21:24;17.55;;;12.38;;
22223;SDS011;11281;52.194;21.006;2023-07-13T02:25:26;18.52;;;12.95;;
22223;SDS011;11281;52.194;21.006;2023-07-13T02:29:28;17.02;;;11.40;;
22223;SDS011;11281;52.194;21.006;2023-07-13T02:33:29;17.92;;;11.90;;
22223;SDS011;11281;52.194;21.006;2023-07-13T02:37:31;16.13;;;11.32;;
22223;SDS011;11281;52.194;21.006;2023-07-13T02:41:32;17.08;;;10.98;;
22223;SDS011;11281;52.194;21.006;2023-07-13T02:45:34;20.85;;;12.45;;
22223;SDS011;11281;52.194;21.006;2023-07-13T02:49:36;18.17;;;11.88;;
22223;SDS011;11281;52.194;21.006;2023-07-13T02:53:38;17.98;;;11.07;;
22223;SDS011;11281;52.194;21.006;2023-07-13T02:57:40;17.58;;;12.00;;
22223;SDS011;11281;52.194;21.006;2023-07-13T03:01:41;16.65;;;11.32;;
22223;SDS011;11281;52.194;21.006;2023-07-13T03:05:44;17.92;;;11.43;;
22223;SDS011;11281;52.194;21.006;2023-07-13T03:09:53;16.63;;;11.60;;
22223;SDS011;11281;52.194;21.006;2023-07-13T03:13:58;17.07;;;11.63;;
22223;SDS011;11281;52.194;21.006;2023-07-13T03:17:59;16.77;;;10.70;;
22223;SDS011;11281;52.194;21.006;2023-07-13T03:22:01;17.58;;;10.88;;
22223;SDS011;11281;52.194;21.006;2023-07-13T03:26:05;15.95;;;10.07;;
22223;SDS011;11281;52.194;21.006;2023-07-13T03:30:10;14.95;;;10.15;;
22223;SDS011;11281;52.194;21.006;2023-07-13T03:34:12;14.02;;;9.73;;
22223;SDS011;11281;52.194;21.006;2023-07-13T03:38:13;16.77;;;10.18;;
22223;SDS011;11281;52.194;21.006;2023-07-13T03:42:15;14.82;;;10.20;;
22223;SDS011;11281;52.194;21.006;2023-07-13T03:46:18;13.98;;;9.82;;
22223;SDS011;11281;52.194;21.006;2023-07-13T03:50:20;16.27;;;9.98;;
22223;SDS011;11281;52.194;21.006;2023-07-13T03:54:21;14.15;;;9.57;;
22223;SDS011;11281;52.194;21.006;2023-07-13T03:58:24;14.93;;;10.32;;
22223;SDS011;11281;52.194;21.006;2023-07-13T04:02:38;18.27;;;10.57;;
22223;SDS011;11281;52.194;21.006;2023-07-13T04:06:39;16.20;;;10.50;;
22223;SDS011;11281;52.194;21.006;2023-07-13T04:10:42;15.73;;;10.40;;
22223;SDS011;11281;52.194;21.006;2023-07-13T04:14:44;15.32;;;10.05;;
22223;SDS011;11281;52.194;21.006;2023-07-13T04:18:46;17.55;;;10.70;;
22223;SDS011;11281;52.194;21.006;2023-07-13T04:22:49;19.38;;;10.65;;
22223;SDS011;11281;52.194;21.006;2023-07-13T04:26:51;20.00;;;10.63;;
22223;SDS011;11281;52.194;21.006;2023-07-13T04:30:53;16.45;;;10.95;;
22223;SDS011;11281;52.194;21.006;2023-07-13T04:34:55;17.83;;;11.20;;
22223;SDS011;11281;52.194;21.006;2023-07-13T04:38:58;16.08;;;11.35;;
22223;SDS011;11281;52.194;21.006;2023-07-13T04:43:00;17.10;;;12.10;;
22223;SDS011;11281;52.194;21.006;2023-07-13T04:47:02;19.90;;;11.63;;
22223;SDS011;11281;52.194;21.006;2023-07-13T04:51:04;19.58;;;11.70;;
22223;SDS011;11281;52.194;21.006;2023-07-13T04:55:07;16.67;;;10.45;;
22223;SDS011;11281;52.194;21.006;2023-07-13T04:59:08;22.15;;;11.82;;
22223;SDS011;11281;52.194;21.006;2023-07-13T05:03:10;17.10;;;12.15;;
22223;SDS011;11281;52.194;21.006;2023-07-13T05:07:12;21.17;;;11.20;;
22223;SDS011;11281;52.194;21.006;2023-07-13T05:11:14;21.17;;;12.73;;
22223;SDS011;11281;52.194;21.006;2023-07-13T05:15:16;20.23;;;12.75;;
22223;SDS011;11281;52.194;21.006;2023-07-13T05:19:22;19.98;;;12.77;;
22223;SDS011;11281;52.194;21.006;2023-07-13T05:23:24;19.30;;;11.95;;
22223;SDS011;11281;52.194;21.006;2023-07-13T05:27:26;18.42;;;11.77;;
22223;SDS011;11281;52.194;21.006;2023-07-13T05:31:28;20.73;;;12.02;;
22223;SDS011;11281;52.194;21.006;2023-07-13T05:35:30;20.20;;;13.27;;
22223;SDS011;11281;52.194;21.006;2023-07-13T05:39:32;19.48;;;12.43;;
22223;SDS011;11281;52.194;21.006;2023-07-13T05:43:34;17.55;;;11.32;;
22223;SDS011;11281;52.194;21.006;2023-07-13T05:47:36;17.30;;;11.45;;
22223;SDS011;11281;52.194;21.006;2023-07-13T05:51:37;21.45;;;11.63;;
22223;SDS011;11281;52.194;21.006;2023-07-13T05:55:46;14.05;;;10.20;;
22223;SDS011;11281;52.194;21.006;2023-07-13T05:59:48;20.20;;;11.48;;
22223;SDS011;11281;52.194;21.006;2023-07-13T06:03:50;14.38;;;10.18;;
22223;SDS011;11281;52.194;21.006;2023-07-13T06:07:51;16.63;;;10.20;;
22223;SDS011;11281;52.194;21.006;2023-07-13T06:11:53;17.38;;;9.75;;
22223;SDS011;11281;52.194;21.006;2023-07-13T06:15:55;14.48;;;10.02;;
22223;SDS011;11281;52.194;21.006;2023-07-13T06:19:57;16.73;;;10.80;;
22223;SDS011;11281;52.194;21.006;2023-07-13T06:23:59;15.25;;;10.27;;
22223;SDS011;11281;52.194;21.006;2023-07-13T06:28:00;18.25;;;10.80;;
22223;SDS011;11281;52.194;21.006;2023-07-13T06:32:03;14.98;;;9.63;;
22223;SDS011;11281;52.194;21.006;2023-07-13T06:36:05;12.57;;;8.27;;
22223;SDS011;11281;52.194;21.006;2023-07-13T06:40:09;12.38;;;8.32;;
22223;SDS011;11281;52.194;21.006;2023-07-13T06:44:11;10.13;;;7.40;;
22223;SDS011;11281;52.194;21.006;2023-07-13T06:48:13;9.30;;;6.57;;
22223;SDS011;11281;52.194;21.006;2023-07-13T06:52:15;12.52;;;5.25;;
22223;SDS011;11281;52.194;21.006;2023-07-13T06:56:17;7.85;;;5.35;;
22223;SDS011;11281;52.194;21.006;2023-07-13T07:00:18;8.20;;;5.45;;
22223;SDS011;11281;52.194;21.006;2023-07-13T07:04:20;5.53;;;4.43;;
22223;SDS011;11281;52.194;21.006;2023-07-13T07:08:22;7.05;;;4.57;;
22223;SDS011;11281;52.194;21.006;2023-07-13T07:12:24;7.90;;;5.75;;
22223;SDS011;11281;52.194;21.006;2023-07-13T07:16:26;6.20;;;4.53;;
22223;SDS011;11281;52.194;21.006;2023-07-13T07:20:28;6.82;;;4.90;;
22223;SDS011;11281;52.194;21.006;2023-07-13T07:24:31;5.30;;;4.40;;
22223;SDS011;11281;52.194;21.006;2023-07-13T07:28:32;4.43;;;3.75;;
22223;SDS011;11281;52.194;21.006;2023-07-13T07:32:34;5.28;;;3.53;;
22223;SDS011;11281;52.194;21.006;2023-07-13T07:36:36;4.22;;;3.20;;
22223;SDS011;11281;52.194;21.006;2023-07-13T07:40:38;4.15;;;3.50;;
22223;SDS011;11281;52.194;21.006;2023-07-13T07:44:41;4.97;;;4.13;;
22223;SDS011;11281;52.194;21.006;2023-07-13T07:48:42;6.28;;;4.30;;
22223;SDS011;11281;52.194;21.006;2023-07-13T07:52:44;5.80;;;4.35;;
22223;SDS011;11281;52.194;21.006;2023-07-13T07:56:45;5.85;;;4.40;;
22223;SDS011;11281;52.194;21.006;2023-07-13T08:00:47;5.00;;;3.45;;
22223;SDS011;11281;52.194;21.006;2023-07-13T08:04:49;6.15;;;3.85;;
22223;SDS011;11281;52.194;21.006;2023-07-13T08:08:51;6.13;;;4.32;;
22223;SDS011;11281;52.194;21.006;2023-07-13T08:12:53;5.63;;;4.22;;
22223;SDS011;11281;52.194;21.006;2023-07-13T08:16:55;5.10;;;4.10;;
22223;SDS011;11281;52.194;21.006;2023-07-13T08:20:56;5.25;;;4.15;;
22223;SDS011;11281;52.194;21.006;2023-07-13T08:24:59;5.60;;;3.70;;
22223;SDS011;11281;52.194;21.006;2023-07-13T08:29:01;5.38;;;3.90;;
22223;SDS011;11281;52.194;21.006;2023-07-13T08:33:03;7.15;;;4.90;;
22223;SDS011;11281;52.194;21.006;2023-07-13T08:37:05;6.90;;;4.50;;
22223;SDS011;11281;52.194;21.006;2023-07-13T08:41:15;4.93;;;4.07;;
22223;SDS011;11281;52.194;21.006;2023-07-13T08:49:47;4.30;;;2.40;;
22223;SDS011;11281;52.194;21.006;2023-07-13T08:53:50;3.03;;;2.22;;
22223;SDS011;11281;52.194;21.006;2023-07-13T08:58:00;2.95;;;2.15;;
22223;SDS011;11281;52.194;21.006;2023-07-13T09:06:20;5.28;;;2.10;;
22223;SDS011;11281;52.194;21.006;2023-07-13T09:10:37;6.00;;;2.15;;
22223;SDS011;11281;52.194;21.006;2023-07-13T09:14:50;3.63;;;2.22;;
22223;SDS011;11281;52.194;21.006;2023-07-13T09:19:03;4.57;;;2.40;;
22223;SDS011;11281;52.194;21.006;2023-07-13T09:23:11;4.93;;;2.63;;
22223;SDS011;11281;52.194;21.006;2023-07-13T09:27:22;4.85;;;2.45;;
22223;SDS011;11281;52.194;21.006;2023-07-13T09:31:33;2.67;;;2.35;;
22223;SDS011;11281;52.194;21.006;2023-07-13T09:35:44;4.55;;;3.33;;
22223;SDS011;11281;52.194;21.006;2023-07-13T09:39:46;5.75;;;2.70;;
22223;SDS011;11281;52.194;21.006;2023-07-13T09:44:07;6.35;;;3.28;;
22223;SDS011;11281;52.194;21.006;2023-07-13T09:48:14;4.15;;;2.92;;
22223;SDS011;11281;52.194;21.006;2023-07-13T09:52:17;5.03;;;3.22;;
22223;SDS011;11281;52.194;21.006;2023-07-13T09:56:23;6.15;;;3.15;;
22223;SDS011;11281;52.194;21.006;2023-07-13T10:00:30;5.70;;;3.13;;
22223;SDS011;11281;52.194;21.006;2023-07-13T10:04:32;5.05;;;3.22;;
22223;SDS011;11281;52.194;21.006;2023-07-13T10:08:35;4.13;;;3.10;;
22223;SDS011;11281;52.194;21.006;2023-07-13T10:12:38;4.15;;;3.13;;
22223;SDS011;11281;52.194;21.006;2023-07-13T10:16:40;4.63;;;3.05;;
22223;SDS011;11281;52.194;21.006;2023-07-13T10:20:46;3.95;;;2.88;;
22223;SDS011;11281;52.194;21.006;2023-07-13T10:24:47;5.75;;;2.75;;
22223;SDS011;11281;52.194;21.006;2023-07-13T10:28:53;5.75;;;3.00;;
22223;SDS011;11281;52.194;21.006;2023-07-13T10:32:58;5.63;;;2.95;;
22223;SDS011;11281;52.194;21.006;2023-07-13T10:37:05;2.85;;;2.53;;
22223;SDS011;11281;52.194;21.006;2023-07-13T10:41:11;5.93;;;3.13;;
22223;SDS011;11281;52.194;21.006;2023-07-13T10:45:21;5.68;;;3.05;;
22223;SDS011;11281;52.194;21.006;2023-07-13T10:49:24;5.80;;;3.42;;
22223;SDS011;11281;52.194;21.006;2023-07-13T10:53:34;6.88;;;3.03;;
22223;SDS011;11281;52.194;21.006;2023-07-13T10:57:41;3.60;;;3.05;;
22223;SDS011;11281;52.194;21.006;2023-07-13T11:01:57;4.28;;;2.47;;
22223;SDS011;11281;52.194;21.006;2023-07-13T11:23:08;4.32;;;3.45;;
22223;SDS011;11281;52.194;21.006;2023-07-13T11:31:56;4.78;;;3.65;;
22223;SDS011;11281;52.194;21.006;2023-07-13T11:36:02;4.10;;;3.05;;
22223;SDS011;11281;52.194;21.006;2023-07-13T11:40:16;6.00;;;3.95;;
22223;SDS011;11281;52.194;21.006;2023-07-13T11:44:22;4.90;;;3.72;;
22223;SDS011;11281;52.194;21.006;2023-07-13T11:48:27;5.33;;;3.93;;
22223;SDS011;11281;52.194;21.006;2023-07-13T11:52:33;7.30;;;4.10;;
22223;SDS011;11281;52.194;21.006;2023-07-13T12:00:42;6.35;;;3.80;;
22223;SDS011;11281;52.194;21.006;2023-07-13T12:04:44;8.18;;;3.70;;
22223;SDS011;11281;52.194;21.006;2023-07-13T12:08:46;4.63;;;3.67;;
22223;SDS011;11281;52.194;21.006;2023-07-13T12:12:53;6.18;;;3.83;;
22223;SDS011;11281;52.194;21.006;2023-07-13T12:17:08;4.72;;;3.47;;
22223;SDS011;11281;52.194;21.006;2023-07-13T12:25:32;5.15;;;3.72;;
22223;SDS011;11281;52.194;21.006;2023-07-13T12:29:34;5.75;;;3.75;;
22223;SDS011;11281;52.194;21.006;2023-07-13T12:33:36;4.70;;;3.58;;
22223;SDS011;11281;52.194;21.006;2023-07-13T12:37:42;5.03;;;3.63;;
22223;SDS011;11281;52.194;21.006;2023-07-13T12:41:46;4.63;;;3.55;;
22223;SDS011;11281;52.194;21.006;2023-07-13T12:46:04;6.60;;;3.80;;
22223;SDS011;11281;52.194;21.006;2023-07-13T12:50:22;5.00;;;3.97;;
22223;SDS011;11281;52.194;21.006;2023-07-13T12:54:29;5.22;;;3.80;;
22223;SDS011;11281;52.194;21.006;2023-07-13T12:58:32;9.52;;;3.78;;
22223;SDS011;11281;52.194;21.006;2023-07-13T13:02:39;5.45;;;3.88;;
22223;SDS011;11281;52.194;21.006;2023-07-13T13:06:41;6.93;;;4.10;;
22223;SDS011;11281;52.194;21.006;2023-07-13T13:10:44;5.35;;;4.40;;
22223;SDS011;11281;52.194;21.006;2023-07-13T13:14:46;5.28;;;3.83;;
22223;SDS011;11281;52.194;21.006;2023-07-13T13:18:50;6.00;;;4.47;;
22223;SDS011;11281;52.194;21.006;2023-07-13T13:22:55;5.65;;;4.50;;
22223;SDS011;11281;52.194;21.006;2023-07-13T13:26:57;5.55;;;4.47;;
22223;SDS011;11281;52.194;21.006;2023-07-13T13:30:59;7.60;;;5.07;;
22223;SDS011;11281;52.194;21.006;2023-07-13T13:35:00;6.85;;;4.95;;
22223;SDS011;11281;52.194;21.006;2023-07-13T13:39:02;8.27;;;5.40;;
22223;SDS011;11281;52.194;21.006;2023-07-13T13:47:30;5.75;;;4.95;;
22223;SDS011;11281;52.194;21.006;2023-07-13T13:51:33;8.32;;;5.30;;
22223;SDS011;11281;52.194;21.006;2023-07-13T13:55:35;8.07;;;5.03;;
22223;SDS011;11281;52.194;21.006;2023-07-13T13:59:36;7.10;;;4.88;;
22223;SDS011;11281;52.194;21.006;2023-07-13T14:03:40;8.73;;;5.20;;
22223;SDS011;11281;52.194;21.006;2023-07-13T14:07:42;8.48;;;5.30;;
22223;SDS011;11281;52.194;21.006;2023-07-13T14:11:45;7.53;;;5.18;;
22223;SDS011;11281;52.194;21.006;2023-07-13T14:15:49;7.75;;;5.32;;
22223;SDS011;11281;52.194;21.006;2023-07-13T14:19:52;8.45;;;5.20;;
22223;SDS011;11281;52.194;21.006;2023-07-13T14:23:58;6.63;;;4.50;;
22223;SDS011;11281;52.194;21.006;2023-07-13T14:27:59;5.97;;;4.65;;
22223;SDS011;11281;52.194;21.006;2023-07-13T14:32:10;5.20;;;4.03;;
22223;SDS011;11281;52.194;21.006;2023-07-13T14:36:30;7.13;;;4.38;;
22223;SDS011;11281;52.194;21.006;2023-07-13T14:40:35;8.35;;;4.28;;
22223;SDS011;11281;52.194;21.006;2023-07-13T14:44:37;5.53;;;4.15;;
22223;SDS011;11281;52.194;21.006;2023-07-13T14:48:40;5.60;;;4.20;;
22223;SDS011;11281;52.194;21.006;2023-07-13T14:52:44;7.25;;;4.50;;
22223;SDS011;11281;52.194;21.006;2023-07-13T14:56:47;6.30;;;4.30;;
22223;SDS011;11281;52.194;21.006;2023-07-13T15:00:49;5.72;;;3.88;;
22223;SDS011;11281;52.194;21.006;2023-07-13T15:04:54;5.82;;;3.97;;
22223;SDS011;11281;52.194;21.006;2023-07-13T15:08:56;6.18;;;4.47;;
22223;SDS011;11281;52.194;21.006;2023-07-13T15:13:12;5.55;;;4.45;;
22223;SDS011;11281;52.194;21.006;2023-07-13T15:17:25;6.28;;;4.47;;
22223;SDS011;11281;52.194;21.006;2023-07-13T15:21:33;7.15;;;4.65;;
22223;SDS011;11281;52.194;21.006;2023-07-13T15:25:35;8.27;;;4.32;;
22223;SDS011;11281;52.194;21.006;2023-07-13T15:29:36;9.20;;;4.43;;
22223;SDS011;11281;52.194;21.006;2023-07-13T15:33:38;10.07;;;4.68;;
22223;SDS011;11281;52.194;21.006;2023-07-13T15:37:39;7.93;;;5.15;;
22223;SDS011;11281;52.194;21.006;2023-07-13T15:41:41;7.95;;;5.03;;
22223;SDS011;11281;52.194;21.006;2023-07-13T15:45:46;7.68;;;4.90;;
22223;SDS011;11281;52.194;21.006;2023-07-13T15:49:49;9.15;;;5.15;;
22223;SDS011;11281;52.194;21.006;2023-07-13T15:53:52;6.88;;;4.50;;
22223;SDS011;11281;52.194;21.006;2023-07-13T15:57:59;10.38;;;5.10;;
22223;SDS011;11281;52.194;21.006;2023-07-13T16:02:03;7.03;;;5.10;;
22223;SDS011;11281;52.194;21.006;2023-07-13T16:10:32;9.82;;;4.75;;
22223;SDS011;11281;52.194;21.006;2023-07-13T16:14:41;7.68;;;5.22;;
22223;SDS011;11281;52.194;21.006;2023-07-13T16:18:43;8.75;;;4.43;;
22223;SDS011;11281;52.194;21.006;2023-07-13T16:22:45;6.97;;;4.35;;
22223;SDS011;11281;52.194;21.006;2023-07-13T16:26:50;7.38;;;4.60;;
22223;SDS011;11281;52.194;21.006;2023-07-13T16:30:53;7.03;;;5.00;;
22223;SDS011;11281;52.194;21.006;2023-07-13T16:34:54;6.45;;;4.63;;
22223;SDS011;11281;52.194;21.006;2023-07-13T16:38:57;9.70;;;5.28;;
22223;SDS011;11281;52.194;21.006;2023-07-13T16:42:59;8.23;;;5.30;;
22223;SDS011;11281;52.194;21.006;2023-07-13T16:47:05;9.32;;;5.10;;
22223;SDS011;11281;52.194;21.006;2023-07-13T16:51:13;9.40;;;4.95;;
22223;SDS011;11281;52.194;21.006;2023-07-13T16:55:15;7.65;;;5.68;;
22223;SDS011;11281;52.194;21.006;2023-07-13T16:59:32;11.35;;;6.22;;
22223;SDS011;11281;52.194;21.006;2023-07-13T17:03:35;9.37;;;6.03;;
22223;SDS011;11281;52.194;21.006;2023-07-13T17:07:37;9.05;;;5.38;;
22223;SDS011;11281;52.194;21.006;2023-07-13T17:11:40;9.10;;;5.75;;
22223;SDS011;11281;52.194;21.006;2023-07-13T17:15:46;8.30;;;5.63;;
22223;SDS011;11281;52.194;21.006;2023-07-13T17:19:54;7.00;;;5.78;;
22223;SDS011;11281;52.194;21.006;2023-07-13T17:23:55;11.48;;;6.25;;
22223;SDS011;11281;52.194;21.006;2023-07-13T17:27:57;9.27;;;6.05;;
22223;SDS011;11281;52.194;21.006;2023-07-13T17:31:59;12.57;;;6.50;;
22223;SDS011;11281;52.194;21.006;2023-07-13T17:36:02;8.65;;;6.18;;
22223;SDS011;11281;52.194;21.006;2023-07-13T17:40:13;11.65;;;6.82;;
22223;SDS011;11281;52.194;21.006;2023-07-13T17:44:18;10.43;;;6.57;;
22223;SDS011;11281;52.194;21.006;2023-07-13T17:48:22;8.77;;;5.80;;
22223;SDS011;11281;52.194;21.006;2023-07-13T17:52:25;10.05;;;6.25;;
22223;SDS011;11281;52.194;21.006;2023-07-13T17:56:29;9.25;;;6.13;;
22223;SDS011;11281;52.194;21.006;2023-07-13T18:00:35;10.65;;;6.50;;
22223;SDS011;11281;52.194;21.006;2023-07-13T18:04:40;10.00;;;6.18;;
22223;SDS011;11281;52.194;21.006;2023-07-13T18:08:41;9.00;;;6.13;;
22223;SDS011;11281;52.194;21.006;2023-07-13T18:12:47;11.20;;;6.70;;
22223;SDS011;11281;52.194;21.006;2023-07-13T18:16:54;13.10;;;6.78;;
22223;SDS011;11281;52.194;21.006;2023-07-13T18:21:01;10.85;;;6.43;;
22223;SDS011;11281;52.194;21.006;2023-07-13T18:25:05;9.38;;;6.13;;
22223;SDS011;11281;52.194;21.006;2023-07-13T18:29:20;11.02;;;6.45;;
22223;SDS011;11281;52.194;21.006;2023-07-13T18:33:23;9.98;;;6.70;;
22223;SDS011;11281;52.194;21.006;2023-07-13T18:37:27;8.25;;;6.53;;
22223;SDS011;11281;52.194;21.006;2023-07-13T18:41:31;10.05;;;6.18;;
22223;SDS011;11281;52.194;21.006;2023-07-13T18:45:33;12.45;;;6.22;;
22223;SDS011;11281;52.194;21.006;2023-07-13T18:49:35;8.43;;;6.68;;
22223;SDS011;11281;52.194;21.006;2023-07-13T18:53:36;10.75;;;6.28;;
22223;SDS011;11281;52.194;21.006;2023-07-13T18:57:39;10.57;;;6.15;;
22223;SDS011;11281;52.194;21.006;2023-07-13T19:01:40;12.15;;;6.30;;
22223;SDS011;11281;52.194;21.006;2023-07-13T19:05:43;9.85;;;6.03;;
22223;SDS011;11281;52.194;21.006;2023-07-13T19:09:45;7.88;;;5.65;;
22223;SDS011;11281;52.194;21.006;2023-07-13T19:13:47;9.30;;;6.50;;
22223;SDS011;11281;52.194;21.006;2023-07-13T19:17:52;10.30;;;6.78;;
22223;SDS011;11281;52.194;21.006;2023-07-13T19:21:54;7.97;;;5.53;;
22223;SDS011;11281;52.194;21.006;2023-07-13T19:26:00;9.32;;;5.75;;
22223;SDS011;11281;52.194;21.006;2023-07-13T19:30:08;9.88;;;5.70;;
22223;SDS011;11281;52.194;21.006;2023-07-13T19:34:16;7.72;;;6.13;;
22223;SDS011;11281;52.194;21.006;2023-07-13T19:38:22;10.80;;;6.90;;
22223;SDS011;11281;52.194;21.006;2023-07-13T19:42:26;10.07;;;6.45;;
22223;SDS011;11281;52.194;21.006;2023-07-13T19:46:30;7.32;;;6.22;;
22223;SDS011;11281;52.194;21.006;2023-07-13T19:50:36;10.10;;;6.53;;
22223;SDS011;11281;52.194;21.006;2023-07-13T19:54:42;10.23;;;6.40;;
22223;SDS011;11281;52.194;21.006;2023-07-13T19:58:45;7.60;;;6.18;;
22223;SDS011;11281;52.194;21.006;2023-07-13T20:02:50;8.82;;;6.18;;
22223;SDS011;11281;52.194;21.006;2023-07-13T20:06:53;7.40;;;6.07;;
22223;SDS011;11281;52.194;21.006;2023-07-13T20:10:54;8.30;;;6.07;;
22223;SDS011;11281;52.194;21.006;2023-07-13T20:14:56;12.65;;;6.85;;
22223;SDS011;11281;52.194;21.006;2023-07-13T20:19:00;8.93;;;6.28;;
22223;SDS011;11281;52.194;21.006;2023-07-13T20:23:04;11.60;;;6.85;;
22223;SDS011;11281;52.194;21.006;2023-07-13T20:27:21;9.68;;;6.47;;
22223;SDS011;11281;52.194;21.006;2023-07-13T20:31:24;9.05;;;7.22;;
22223;SDS011;11281;52.194;21.006;2023-07-13T20:35:30;14.35;;;7.88;;
22223;SDS011;11281;52.194;21.006;2023-07-13T20:39:34;12.27;;;7.90;;
22223;SDS011;11281;52.194;21.006;2023-07-13T20:43:36;9.05;;;6.80;;
22223;SDS011;11281;52.194;21.006;2023-07-13T20:47:38;9.18;;;6.80;;
22223;SDS011;11281;52.194;21.006;2023-07-13T20:51:47;9.70;;;6.90;;
22223;SDS011;11281;52.194;21.006;2023-07-13T20:55:51;9.50;;;6.57;;
22223;SDS011;11281;52.194;21.006;2023-07-13T20:59:53;10.40;;;7.40;;
22223;SDS011;11281;52.194;21.006;2023-07-13T21:03:58;11.40;;;6.55;;
22223;SDS011;11281;52.194;21.006;2023-07-13T21:08:16;10.40;;;6.95;;
22223;SDS011;11281;52.194;21.006;2023-07-13T21:12:21;9.55;;;6.45;;
22223;SDS011;11281;52.194;21.006;2023-07-13T21:16:24;11.30;;;6.63;;
22223;SDS011;11281;52.194;21.006;2023-07-13T21:20:35;11.48;;;7.60;;
22223;SDS011;11281;52.194;21.006;2023-07-13T21:24:39;12.75;;;7.63;;
22223;SDS011;11281;52.194;21.006;2023-07-13T21:28:42;10.52;;;7.30;;
22223;SDS011;11281;52.194;21.006;2023-07-13T21:32:50;9.82;;;7.07;;
22223;SDS011;11281;52.194;21.006;2023-07-13T21:36:53;13.38;;;8.00;;
22223;SDS011;11281;52.194;21.006;2023-07-13T21:41:00;15.00;;;8.82;;
22223;SDS011;11281;52.194;21.006;2023-07-13T21:45:13;12.13;;;6.88;;
22223;SDS011;11281;52.194;21.006;2023-07-13T21:49:21;13.27;;;8.05;;
22223;SDS011;11281;52.194;21.006;2023-07-13T21:57:24;10.63;;;7.68;;
22223;SDS011;11281;52.194;21.006;2023-07-13T22:01:30;12.15;;;6.65;;
22223;SDS011;11281;52.194;21.006;2023-07-13T22:05:37;12.68;;;8.25;;
22223;SDS011;11281;52.194;21.006;2023-07-13T22:09:38;10.65;;;7.68;;
22223;SDS011;11281;52.194;21.006;2023-07-13T22:13:40;11.35;;;7.40;;
22223;SDS011;11281;52.194;21.006;2023-07-13T22:17:47;12.98;;;8.25;;
22223;SDS011;11281;52.194;21.006;2023-07-13T22:21:49;13.68;;;8.77;;
22223;SDS011;11281;52.194;21.006;2023-07-13T22:25:52;12.15;;;8.55;;
22223;SDS011;11281;52.194;21.006;2023-07-13T22:29:56;9.27;;;6.78;;
22223;SDS011;11281;52.194;21.006;2023-07-13T22:33:58;13.40;;;7.72;;
22223;SDS011;11281;52.194;21.006;2023-07-13T22:38:00;12.52;;;7.93;;
22223;SDS011;11281;52.194;21.006;2023-07-13T22:42:02;11.30;;;7.82;;
22223;SDS011;11281;52.194;21.006;2023-07-13T22:46:05;11.20;;;8.65;;
22223;SDS011;11281;52.194;21.006;2023-07-13T22:50:15;14.35;;;8.48;;
22223;SDS011;11281;52.194;21.006;2023-07-13T22:54:18;12.50;;;8.43;;
22223;SDS011;11281;52.194;21.006;2023-07-13T22:58:22;12.00;;;8.23;;
22223;SDS011;11281;52.194;21.006;2023-07-13T23:02:26;12.40;;;7.90;;
22223;SDS011;11281;52.194;21.006;2023-07-13T23:06:34;13.80;;;7.80;;
22223;SDS011;11281;52.194;21.006;2023-07-13T23:10:36;12.77;;;8.70;;
22223;SDS011;11281;52.194;21.006;2023-07-13T23:14:38;11.75;;;8.45;;
22223;SDS011;11281;52.194;21.006;2023-07-13T23:18:40;8.90;;;6.72;;
22223;SDS011;11281;52.194;21.006;2023-07-13T23:22:42;12.48;;;7.07;;
22223;SDS011;11281;52.194;21.006;2023-07-13T23:26:44;11.68;;;8.38;;
22223;SDS011;11281;52.194;21.006;2023-07-13T23:30:46;9.52;;;6.97;;
22223;SDS011;11281;52.194;21.006;2023-07-13T23:34:49;11.05;;;7.43;;
22223;SDS011;11281;52.194;21.006;2023-07-13T23:38:51;11.18;;;7.43;;
22223;SDS011;11281;52.194;21.006;2023-07-13T23:42:53;11.43;;;7.13;;
22223;SDS011;11281;52.194;21.006;2023-07-13T23:46:55;10.80;;;7.93;;
22223;SDS011;11281;52.194;21.006;2023-07-13T23:50:57;12.27;;;8.23;;
22223;SDS011;11281;52.194;21.006;2023-07-13T23:54:59;11.23;;;8.13;;
22223;SDS011;11281;52.194;21.006;2023-07-13T23:59:01;11.57;;;7.80;;
